Time,TemperatureF,DewpointF,PressureIn,WindDirection,WindDirectionDegrees,WindSpeedMPH,WindSpeedGustMPH,Humidity,HourlyPrecipIn,Conditions,Clouds,dailyrainin,SolarRadiationWatts/m^2,SoftwareType,DateUTC
2013-03-28 14:31:00,56.0,22.0,-100.00,NW,304,4.0,11.0,26,-99.99,,,0.00,1029.000000,,2013-03-28 18:31:00,
2013-03-28 15:02:00,56.0,22.0,-100.00,NW,304,4.0,11.0,26,-99.99,,,0.00,1029.000000,,2013-03-28 19:02:00,
2013-03-28 15:12:00,56.0,22.0,-100.00,NW,304,4.0,11.0,26,-99.99,,,0.00,1029.000000,,2013-03-28 19:12:00,
2013-03-28 15:23:00,56.0,22.0,-100.00,NW,304,4.0,11.0,26,-99.99,,,0.00,1029.000000,,2013-03-28 19:23:00,
2013-03-28 15:31:00,57.0,20.0,-100.00,NNW,335,5.0,12.0,23,0.00,,,0.00,973.000000,,2013-03-28 19:31:00,
2013-03-28 15:52:00,57.0,20.0,-100.00,NNW,335,5.0,12.0,23,0.00,,,0.00,973.000000,,2013-03-28 19:52:00,
2013-03-28 16:03:00,57.0,20.0,-100.00,NNW,335,5.0,12.0,23,0.00,,,0.00,973.000000,,2013-03-28 20:03:00,
2013-03-28 16:12:00,57.0,20.0,-100.00,NNW,335,5.0,12.0,23,0.00,,,0.00,973.000000,,2013-03-28 20:12:00,
2013-03-28 16:22:00,57.0,20.0,-100.00,NNW,335,5.0,12.0,23,0.00,,,0.00,973.000000,,2013-03-28 20:22:00,
2013-03-28 16:31:00,59.0,20.0,-100.00,NW,305,5.0,12.0,22,0.00,,,0.00,845.000000,,2013-03-28 20:31:00,
2013-03-28 16:53:00,59.0,20.0,-100.00,NW,305,5.0,12.0,22,0.00,,,0.00,845.000000,,2013-03-28 20:53:00,
2013-03-28 17:03:00,59.0,20.0,-100.00,NW,305,5.0,12.0,22,0.00,,,0.00,845.000000,,2013-03-28 21:03:00,
2013-03-28 17:12:00,59.0,20.0,-100.00,NW,305,5.0,12.0,22,0.00,,,0.00,845.000000,,2013-03-28 21:12:00,
2013-03-28 17:22:00,59.0,20.0,-100.00,NW,305,5.0,12.0,22,0.00,,,0.00,845.000000,,2013-03-28 21:22:00,
2013-03-28 17:31:00,59.0,18.0,-100.00,NW,311,4.0,12.0,20,0.00,,,0.00,653.000000,,2013-03-28 21:31:00,
2013-03-28 17:53:00,59.0,18.0,-100.00,NW,311,4.0,12.0,20,0.00,,,0.00,653.000000,,2013-03-28 21:53:00,
2013-03-28 18:03:00,59.0,18.0,-100.00,NW,311,4.0,12.0,20,0.00,,,0.00,653.000000,,2013-03-28 22:03:00,
2013-03-28 18:13:00,59.0,18.0,-100.00,NW,311,4.0,12.0,20,0.00,,,0.00,653.000000,,2013-03-28 22:13:00,
2013-03-28 18:23:00,59.0,18.0,-100.00,NW,311,4.0,12.0,20,0.00,,,0.00,653.000000,,2013-03-28 22:23:00,
2013-03-28 18:31:00,58.0,18.0,-100.00,NW,310,4.0,9.0,21,0.00,,,0.00,412.000000,,2013-03-28 22:31:00,
2013-03-28 18:53:00,58.0,18.0,-100.00,NW,310,4.0,9.0,21,0.00,,,0.00,412.000000,,2013-03-28 22:53:00,
2013-03-28 19:03:00,58.0,18.0,-100.00,NW,310,4.0,9.0,21,0.00,,,0.00,412.000000,,2013-03-28 23:03:00,
2013-03-28 19:12:00,58.0,18.0,-100.00,NW,310,4.0,9.0,21,0.00,,,0.00,412.000000,,2013-03-28 23:12:00,
2013-03-28 19:22:00,58.0,18.0,-100.00,NW,310,4.0,9.0,21,0.00,,,0.00,412.000000,,2013-03-28 23:22:00,
2013-03-28 19:31:00,54.0,16.0,-100.00,NNW,338,4.0,10.0,22,0.00,,,0.00,118.000000,,2013-03-28 23:31:00,
2013-03-28 19:53:00,54.0,16.0,-100.00,NNW,338,4.0,10.0,22,0.00,,,0.00,118.000000,,2013-03-28 23:53:00,
2013-03-28 20:12:00,54.0,16.0,-100.00,NNW,338,4.0,10.0,22,0.00,,,0.00,118.000000,,2013-03-29 00:12:00,
2013-03-28 20:22:00,54.0,16.0,-100.00,NNW,338,4.0,10.0,22,0.00,,,0.00,118.000000,,2013-03-29 00:22:00,
2013-03-28 20:31:00,49.0,19.0,-100.00,North,3,1.0,6.0,30,0.00,,,-99.99,3.000000,,2013-03-29 00:31:00,
2013-03-28 20:52:00,49.0,19.0,-100.00,North,3,1.0,6.0,30,0.00,,,-99.99,3.000000,,2013-03-29 00:52:00,
2013-03-28 21:02:00,49.0,19.0,-100.00,North,3,1.0,6.0,30,0.00,,,-99.99,3.000000,,2013-03-29 01:02:00,
2013-03-28 21:12:00,49.0,19.0,-100.00,North,3,1.0,6.0,30,0.00,,,-99.99,3.000000,,2013-03-29 01:12:00,
2013-03-28 21:22:00,49.0,19.0,-100.00,North,3,1.0,6.0,30,0.00,,,-99.99,3.000000,,2013-03-29 01:22:00,
2013-03-28 21:31:00,46.0,19.0,-100.00,ESE,106,2.0,6.0,34,0.00,,,-99.99,0.000000,,2013-03-29 01:31:00,
2013-03-28 21:53:00,46.0,19.0,-100.00,ESE,106,2.0,6.0,34,0.00,,,-99.99,0.000000,,2013-03-29 01:53:00,
2013-03-28 22:03:00,46.0,19.0,-100.00,ESE,106,2.0,6.0,34,0.00,,,-99.99,0.000000,,2013-03-29 02:03:00,
2013-03-28 22:12:00,46.0,19.0,-100.00,ESE,106,2.0,6.0,34,0.00,,,-99.99,0.000000,,2013-03-29 02:12:00,
2013-03-28 22:22:00,46.0,19.0,-100.00,ESE,106,2.0,6.0,34,0.00,,,-99.99,0.000000,,2013-03-29 02:22:00,
2013-03-28 22:31:00,43.0,20.0,-100.00,North,3,1.0,3.0,39,0.00,,,-99.99,0.000000,,2013-03-29 02:31:00,
2013-03-28 22:53:00,43.0,20.0,-100.00,North,3,1.0,3.0,39,0.00,,,-99.99,0.000000,,2013-03-29 02:53:00,
2013-03-28 23:02:00,43.0,20.0,-100.00,North,3,1.0,3.0,39,0.00,,,-99.99,0.000000,,2013-03-29 03:02:00,
2013-03-28 23:12:00,43.0,20.0,-100.00,North,3,1.0,3.0,39,0.00,,,-99.99,0.000000,,2013-03-29 03:12:00,
2013-03-28 23:22:00,43.0,20.0,-100.00,North,3,1.0,3.0,39,0.00,,,-99.99,0.000000,,2013-03-29 03:22:00,
2013-03-28 23:31:00,39.0,21.0,-100.00,SE,127,2.0,3.0,48,0.00,,,-99.99,0.000000,,2013-03-29 03:31:00,
2013-03-28 23:53:00,39.0,21.0,-100.00,SE,127,2.0,3.0,48,0.00,,,-99.99,0.000000,,2013-03-29 03:53:00,